sensor_id;sensor_type;location;lat;lon;timestamp;temperature;humidity
59075;DHT22;44860;53.020;6.738;2024-02-23T00:00:39;5.50;99.90
59075;DHT22;44860;53.020;6.738;2024-02-23T00:03:05;5.40;99.90
59075;DHT22;44860;53.020;6.738;2024-02-23T00:05:30;5.50;99.90
59075;DHT22;44860;53.020;6.738;2024-02-23T00:07:57;5.50;99.90
59075;DHT22;44860;53.020;6.738;2024-02-23T00:10:22;5.40;99.90
59075;DHT22;44860;53.020;6.738;2024-02-23T00:12:48;5.40;99.90
59075;DHT22;44860;53.020;6.738;2024-02-23T00:15:14;5.40;99.90
59075;DHT22;44860;53.020;6.738;2024-02-23T00:17:39;5.50;99.90
59075;DHT22;44860;53.020;6.738;2024-02-23T00:20:09;5.50;99.90
59075;DHT22;44860;53.020;6.738;2024-02-23T00:22:37;5.40;99.90
59075;DHT22;44860;53.020;6.738;2024-02-23T00:25:02;5.40;99.90
59075;DHT22;44860;53.020;6.738;2024-02-23T00:27:28;5.50;99.90
59075;DHT22;44860;53.020;6.738;2024-02-23T00:29:54;5.40;99.90
59075;DHT22;44860;53.020;6.738;2024-02-23T00:32:19;5.50;99.90
59075;DHT22;44860;53.020;6.738;2024-02-23T00:34:45;5.50;99.90
59075;DHT22;44860;53.020;6.738;2024-02-23T00:37:11;5.50;99.90
59075;DHT22;44860;53.020;6.738;2024-02-23T00:39:37;5.50;99.90
59075;DHT22;44860;53.020;6.738;2024-02-23T00:42:03;5.50;99.90
59075;DHT22;44860;53.020;6.738;2024-02-23T00:44:29;5.40;99.90
59075;DHT22;44860;53.020;6.738;2024-02-23T00:46:54;5.40;99.90
59075;DHT22;44860;53.020;6.738;2024-02-23T00:49:20;5.30;99.90
59075;DHT22;44860;53.020;6.738;2024-02-23T00:51:46;5.30;99.90
59075;DHT22;44860;53.020;6.738;2024-02-23T00:54:11;5.30;99.90
59075;DHT22;44860;53.020;6.738;2024-02-23T00:56:37;5.30;99.90
59075;DHT22;44860;53.020;6.738;2024-02-23T00:59:03;5.20;99.90
59075;DHT22;44860;53.020;6.738;2024-02-23T01:01:28;5.20;99.90
59075;DHT22;44860;53.020;6.738;2024-02-23T01:03:54;5.10;99.90
59075;DHT22;44860;53.020;6.738;2024-02-23T01:06:20;5.00;99.90
59075;DHT22;44860;53.020;6.738;2024-02-23T01:08:45;5.00;99.90
59075;DHT22;44860;53.020;6.738;2024-02-23T01:11:11;4.90;99.90
59075;DHT22;44860;53.020;6.738;2024-02-23T01:13:37;4.90;99.90
59075;DHT22;44860;53.020;6.738;2024-02-23T01:16:03;4.70;99.90
59075;DHT22;44860;53.020;6.738;2024-02-23T01:18:28;4.70;99.90
59075;DHT22;44860;53.020;6.738;2024-02-23T01:20:56;4.60;99.90
59075;DHT22;44860;53.020;6.738;2024-02-23T01:23:22;4.60;99.90
59075;DHT22;44860;53.020;6.738;2024-02-23T01:25:48;4.60;99.90
59075;DHT22;44860;53.020;6.738;2024-02-23T01:28:13;4.60;99.90
59075;DHT22;44860;53.020;6.738;2024-02-23T01:30:39;4.50;99.90
59075;DHT22;44860;53.020;6.738;2024-02-23T01:33:05;4.60;99.90
59075;DHT22;44860;53.020;6.738;2024-02-23T01:35:30;4.50;99.90
59075;DHT22;44860;53.020;6.738;2024-02-23T01:37:56;4.50;99.90
59075;DHT22;44860;53.020;6.738;2024-02-23T01:40:22;4.50;99.90
59075;DHT22;44860;53.020;6.738;2024-02-23T01:42:47;4.50;99.90
59075;DHT22;44860;53.020;6.738;2024-02-23T01:45:13;4.60;99.90
59075;DHT22;44860;53.020;6.738;2024-02-23T01:47:39;4.50;99.90
59075;DHT22;44860;53.020;6.738;2024-02-23T01:50:05;4.60;99.90
59075;DHT22;44860;53.020;6.738;2024-02-23T01:52:33;4.60;99.90
59075;DHT22;44860;53.020;6.738;2024-02-23T01:54:59;4.60;99.90
59075;DHT22;44860;53.020;6.738;2024-02-23T01:57:26;4.60;99.90
59075;DHT22;44860;53.020;6.738;2024-02-23T01:59:53;4.60;99.90
59075;DHT22;44860;53.020;6.738;2024-02-23T02:02:20;4.60;99.90
59075;DHT22;44860;53.020;6.738;2024-02-23T02:04:45;4.70;99.90
59075;DHT22;44860;53.020;6.738;2024-02-23T02:07:11;4.70;99.90
59075;DHT22;44860;53.020;6.738;2024-02-23T02:09:37;4.70;99.90
59075;DHT22;44860;53.020;6.738;2024-02-23T02:12:03;4.80;99.90
59075;DHT22;44860;53.020;6.738;2024-02-23T02:14:28;4.80;99.90
59075;DHT22;44860;53.020;6.738;2024-02-23T02:16:56;4.80;99.90
59075;DHT22;44860;53.020;6.738;2024-02-23T02:19:22;4.80;99.90
59075;DHT22;44860;53.020;6.738;2024-02-23T02:21:48;4.90;99.90
59075;DHT22;44860;53.020;6.738;2024-02-23T02:24:13;4.90;99.90
59075;DHT22;44860;53.020;6.738;2024-02-23T02:26:39;4.90;99.90
59075;DHT22;44860;53.020;6.738;2024-02-23T02:29:05;4.90;99.90
59075;DHT22;44860;53.020;6.738;2024-02-23T02:31:30;5.00;99.90
59075;DHT22;44860;53.020;6.738;2024-02-23T02:34:03;5.00;99.90
59075;DHT22;44860;53.020;6.738;2024-02-23T02:36:29;5.00;99.90
59075;DHT22;44860;53.020;6.738;2024-02-23T02:38:54;5.00;99.90
59075;DHT22;44860;53.020;6.738;2024-02-23T02:41:22;5.00;99.90
59075;DHT22;44860;53.020;6.738;2024-02-23T02:43:49;5.00;99.90
59075;DHT22;44860;53.020;6.738;2024-02-23T02:46:15;5.00;99.90
59075;DHT22;44860;53.020;6.738;2024-02-23T02:48:40;5.00;99.90
59075;DHT22;44860;53.020;6.738;2024-02-23T02:51:06;5.10;99.90
59075;DHT22;44860;53.020;6.738;2024-02-23T02:53:32;5.10;99.90
59075;DHT22;44860;53.020;6.738;2024-02-23T02:55:57;5.10;99.90
59075;DHT22;44860;53.020;6.738;2024-02-23T02:58:23;5.10;99.90
59075;DHT22;44860;53.020;6.738;2024-02-23T03:00:48;5.10;99.90
59075;DHT22;44860;53.020;6.738;2024-02-23T03:03:14;5.10;99.90
59075;DHT22;44860;53.020;6.738;2024-02-23T03:05:40;5.10;99.90
59075;DHT22;44860;53.020;6.738;2024-02-23T03:08:06;5.10;99.90
59075;DHT22;44860;53.020;6.738;2024-02-23T03:10:32;5.10;99.90
59075;DHT22;44860;53.020;6.738;2024-02-23T03:12:57;5.10;99.90
59075;DHT22;44860;53.020;6.738;2024-02-23T03:15:23;5.10;99.90
59075;DHT22;44860;53.020;6.738;2024-02-23T03:17:49;5.20;99.90
59075;DHT22;44860;53.020;6.738;2024-02-23T03:20:16;5.20;99.90
59075;DHT22;44860;53.020;6.738;2024-02-23T03:22:41;5.20;99.90
59075;DHT22;44860;53.020;6.738;2024-02-23T03:25:07;5.20;99.90
59075;DHT22;44860;53.020;6.738;2024-02-23T03:27:34;5.20;99.90
59075;DHT22;44860;53.020;6.738;2024-02-23T03:30:06;5.30;99.90
59075;DHT22;44860;53.020;6.738;2024-02-23T03:32:35;5.30;99.90
59075;DHT22;44860;53.020;6.738;2024-02-23T03:35:05;5.30;99.90
59075;DHT22;44860;53.020;6.738;2024-02-23T03:37:31;5.20;99.90
59075;DHT22;44860;53.020;6.738;2024-02-23T03:39:57;5.20;99.90
59075;DHT22;44860;53.020;6.738;2024-02-23T03:42:23;5.20;99.90
59075;DHT22;44860;53.020;6.738;2024-02-23T03:44:49;5.20;99.90
59075;DHT22;44860;53.020;6.738;2024-02-23T03:47:14;5.20;99.90
59075;DHT22;44860;53.020;6.738;2024-02-23T03:49:40;5.20;99.90
59075;DHT22;44860;53.020;6.738;2024-02-23T03:52:05;5.20;99.90
59075;DHT22;44860;53.020;6.738;2024-02-23T03:54:31;5.20;99.90
59075;DHT22;44860;53.020;6.738;2024-02-23T03:56:57;5.20;99.90
59075;DHT22;44860;53.020;6.738;2024-02-23T03:59:23;5.20;99.90
59075;DHT22;44860;53.020;6.738;2024-02-23T04:01:49;5.20;99.90
59075;DHT22;44860;53.020;6.738;2024-02-23T04:04:15;5.20;99.90
59075;DHT22;44860;53.020;6.738;2024-02-23T04:06:41;5.20;99.90
59075;DHT22;44860;53.020;6.738;2024-02-23T04:09:07;5.20;99.90
59075;DHT22;44860;53.020;6.738;2024-02-23T04:11:34;5.20;99.90
59075;DHT22;44860;53.020;6.738;2024-02-23T04:14:00;5.20;99.90
59075;DHT22;44860;53.020;6.738;2024-02-23T04:16:26;5.20;99.90
59075;DHT22;44860;53.020;6.738;2024-02-23T04:18:53;5.20;99.90
59075;DHT22;44860;53.020;6.738;2024-02-23T04:21:19;5.20;99.90
59075;DHT22;44860;53.020;6.738;2024-02-23T04:23:45;5.30;99.90
59075;DHT22;44860;53.020;6.738;2024-02-23T04:26:11;5.30;99.90
59075;DHT22;44860;53.020;6.738;2024-02-23T04:28:41;5.30;99.90
59075;DHT22;44860;53.020;6.738;2024-02-23T04:31:08;5.30;99.90
59075;DHT22;44860;53.020;6.738;2024-02-23T04:33:35;5.30;99.90
59075;DHT22;44860;53.020;6.738;2024-02-23T04:36:02;5.30;99.90
59075;DHT22;44860;53.020;6.738;2024-02-23T04:38:29;5.30;99.90
59075;DHT22;44860;53.020;6.738;2024-02-23T04:40:55;5.30;99.90
59075;DHT22;44860;53.020;6.738;2024-02-23T04:43:23;5.20;99.90
59075;DHT22;44860;53.020;6.738;2024-02-23T04:45:49;5.20;99.90
59075;DHT22;44860;53.020;6.738;2024-02-23T04:48:15;5.20;99.90
59075;DHT22;44860;53.020;6.738;2024-02-23T04:50:41;5.20;99.90
59075;DHT22;44860;53.020;6.738;2024-02-23T04:53:06;5.10;99.90
59075;DHT22;44860;53.020;6.738;2024-02-23T04:55:33;5.10;99.90
59075;DHT22;44860;53.020;6.738;2024-02-23T04:57:59;5.10;99.90
59075;DHT22;44860;53.020;6.738;2024-02-23T05:00:24;5.10;99.90
59075;DHT22;44860;53.020;6.738;2024-02-23T05:02:54;5.10;99.90
59075;DHT22;44860;53.020;6.738;2024-02-23T05:05:19;5.10;99.90
59075;DHT22;44860;53.020;6.738;2024-02-23T05:07:47;5.10;99.90
59075;DHT22;44860;53.020;6.738;2024-02-23T05:10:13;5.00;99.90
59075;DHT22;44860;53.020;6.738;2024-02-23T05:12:38;5.10;99.90
59075;DHT22;44860;53.020;6.738;2024-02-23T05:15:04;5.00;99.90
59075;DHT22;44860;53.020;6.738;2024-02-23T05:17:30;5.00;99.90
59075;DHT22;44860;53.020;6.738;2024-02-23T05:19:55;5.10;99.90
59075;DHT22;44860;53.020;6.738;2024-02-23T05:22:21;5.00;99.90
59075;DHT22;44860;53.020;6.738;2024-02-23T05:24:47;5.00;99.90
59075;DHT22;44860;53.020;6.738;2024-02-23T05:27:12;5.00;99.90
59075;DHT22;44860;53.020;6.738;2024-02-23T05:29:38;5.00;99.90
59075;DHT22;44860;53.020;6.738;2024-02-23T05:32:04;5.00;99.90
59075;DHT22;44860;53.020;6.738;2024-02-23T05:34:30;5.00;99.90
59075;DHT22;44860;53.020;6.738;2024-02-23T05:36:55;5.00;99.90
59075;DHT22;44860;53.020;6.738;2024-02-23T05:39:21;5.00;99.90
59075;DHT22;44860;53.020;6.738;2024-02-23T05:41:47;5.00;99.90
59075;DHT22;44860;53.020;6.738;2024-02-23T05:44:12;5.00;99.90
59075;DHT22;44860;53.020;6.738;2024-02-23T05:46:39;5.00;99.90
59075;DHT22;44860;53.020;6.738;2024-02-23T05:49:04;5.00;99.90
59075;DHT22;44860;53.020;6.738;2024-02-23T05:51:30;5.00;99.90
59075;DHT22;44860;53.020;6.738;2024-02-23T05:53:56;5.00;99.90
59075;DHT22;44860;53.020;6.738;2024-02-23T05:56:22;5.00;99.90
59075;DHT22;44860;53.020;6.738;2024-02-23T05:58:50;5.00;99.90
59075;DHT22;44860;53.020;6.738;2024-02-23T06:01:16;5.10;99.90
59075;DHT22;44860;53.020;6.738;2024-02-23T06:03:42;5.10;99.90
59075;DHT22;44860;53.020;6.738;2024-02-23T06:06:08;5.00;99.90
59075;DHT22;44860;53.020;6.738;2024-02-23T06:08:34;5.00;99.90
59075;DHT22;44860;53.020;6.738;2024-02-23T06:11:00;5.00;99.90
59075;DHT22;44860;53.020;6.738;2024-02-23T06:13:26;5.00;99.90
59075;DHT22;44860;53.020;6.738;2024-02-23T06:15:52;5.00;99.90
59075;DHT22;44860;53.020;6.738;2024-02-23T06:18:17;5.00;99.90
59075;DHT22;44860;53.020;6.738;2024-02-23T06:20:43;5.00;99.90
59075;DHT22;44860;53.020;6.738;2024-02-23T06:23:09;5.00;99.90
59075;DHT22;44860;53.020;6.738;2024-02-23T06:25:34;5.00;99.90
59075;DHT22;44860;53.020;6.738;2024-02-23T06:28:00;5.00;99.90
59075;DHT22;44860;53.020;6.738;2024-02-23T06:30:26;5.00;99.90
59075;DHT22;44860;53.020;6.738;2024-02-23T06:32:51;5.00;99.90
59075;DHT22;44860;53.020;6.738;2024-02-23T06:35:17;5.00;99.90
59075;DHT22;44860;53.020;6.738;2024-02-23T06:37:43;5.00;99.90
59075;DHT22;44860;53.020;6.738;2024-02-23T06:40:09;5.00;99.90
59075;DHT22;44860;53.020;6.738;2024-02-23T06:42:35;5.00;99.90
59075;DHT22;44860;53.020;6.738;2024-02-23T06:45:01;5.00;99.90
59075;DHT22;44860;53.020;6.738;2024-02-23T06:47:26;5.00;99.90
59075;DHT22;44860;53.020;6.738;2024-02-23T06:49:52;5.00;99.90
59075;DHT22;44860;53.020;6.738;2024-02-23T06:52:18;5.00;99.90
59075;DHT22;44860;53.020;6.738;2024-02-23T06:54:44;5.00;99.90
59075;DHT22;44860;53.020;6.738;2024-02-23T06:57:10;5.00;99.90
59075;DHT22;44860;53.020;6.738;2024-02-23T06:59:36;5.00;99.90
59075;DHT22;44860;53.020;6.738;2024-02-23T07:02:02;5.00;99.90
59075;DHT22;44860;53.020;6.738;2024-02-23T07:04:28;5.00;99.90
59075;DHT22;44860;53.020;6.738;2024-02-23T07:06:55;5.10;99.90
59075;DHT22;44860;53.020;6.738;2024-02-23T07:09:21;5.00;99.90
59075;DHT22;44860;53.020;6.738;2024-02-23T07:11:46;5.10;99.90
59075;DHT22;44860;53.020;6.738;2024-02-23T07:14:12;5.10;99.90
59075;DHT22;44860;53.020;6.738;2024-02-23T07:16:40;5.10;99.90
59075;DHT22;44860;53.020;6.738;2024-02-23T07:19:06;5.10;99.90
59075;DHT22;44860;53.020;6.738;2024-02-23T07:21:33;5.10;99.90
59075;DHT22;44860;53.020;6.738;2024-02-23T07:23:59;5.20;99.90
59075;DHT22;44860;53.020;6.738;2024-02-23T07:26:25;5.20;99.90
59075;DHT22;44860;53.020;6.738;2024-02-23T07:28:50;5.20;99.90
59075;DHT22;44860;53.020;6.738;2024-02-23T07:31:16;5.30;99.90
59075;DHT22;44860;53.020;6.738;2024-02-23T07:33:43;5.20;99.90
59075;DHT22;44860;53.020;6.738;2024-02-23T07:36:17;5.30;99.90
59075;DHT22;44860;53.020;6.738;2024-02-23T07:38:42;5.30;99.90
59075;DHT22;44860;53.020;6.738;2024-02-23T07:41:11;5.30;99.90
59075;DHT22;44860;53.020;6.738;2024-02-23T07:43:39;5.40;99.90
59075;DHT22;44860;53.020;6.738;2024-02-23T07:46:04;5.40;99.90
59075;DHT22;44860;53.020;6.738;2024-02-23T07:48:37;5.40;99.90
59075;DHT22;44860;53.020;6.738;2024-02-23T07:51:05;5.40;99.90
59075;DHT22;44860;53.020;6.738;2024-02-23T07:53:31;5.50;99.90
59075;DHT22;44860;53.020;6.738;2024-02-23T07:55:58;5.50;99.90
59075;DHT22;44860;53.020;6.738;2024-02-23T07:58:25;5.50;99.90
59075;DHT22;44860;53.020;6.738;2024-02-23T08:00:52;5.50;99.90
59075;DHT22;44860;53.020;6.738;2024-02-23T08:03:18;5.50;99.90
59075;DHT22;44860;53.020;6.738;2024-02-23T08:05:44;5.60;99.90
59075;DHT22;44860;53.020;6.738;2024-02-23T08:08:10;5.60;99.90
59075;DHT22;44860;53.020;6.738;2024-02-23T08:10:35;5.60;99.90
59075;DHT22;44860;53.020;6.738;2024-02-23T08:13:01;5.60;99.90
59075;DHT22;44860;53.020;6.738;2024-02-23T08:15:27;5.60;99.90
59075;DHT22;44860;53.020;6.738;2024-02-23T08:17:53;5.70;99.90
59075;DHT22;44860;53.020;6.738;2024-02-23T08:20:19;5.70;99.90
59075;DHT22;44860;53.020;6.738;2024-02-23T08:22:44;5.70;99.90
59075;DHT22;44860;53.020;6.738;2024-02-23T08:25:10;5.70;99.90
59075;DHT22;44860;53.020;6.738;2024-02-23T08:27:36;5.80;99.90
59075;DHT22;44860;53.020;6.738;2024-02-23T08:30:02;5.70;99.90
59075;DHT22;44860;53.020;6.738;2024-02-23T08:32:27;5.80;99.90
59075;DHT22;44860;53.020;6.738;2024-02-23T08:34:53;5.80;99.90
59075;DHT22;44860;53.020;6.738;2024-02-23T08:37:25;5.80;99.90
59075;DHT22;44860;53.020;6.738;2024-02-23T08:39:51;5.90;99.90
59075;DHT22;44860;53.020;6.738;2024-02-23T08:42:16;5.90;99.90
59075;DHT22;44860;53.020;6.738;2024-02-23T08:44:44;5.90;99.90
59075;DHT22;44860;53.020;6.738;2024-02-23T08:47:10;5.90;99.90
59075;DHT22;44860;53.020;6.738;2024-02-23T08:49:36;6.00;99.90
59075;DHT22;44860;53.020;6.738;2024-02-23T08:52:02;6.00;99.90
59075;DHT22;44860;53.020;6.738;2024-02-23T08:54:29;6.00;99.90
59075;DHT22;44860;53.020;6.738;2024-02-23T08:56:55;6.00;99.90
59075;DHT22;44860;53.020;6.738;2024-02-23T08:59:20;6.00;99.90
59075;DHT22;44860;53.020;6.738;2024-02-23T09:01:46;6.10;99.90
59075;DHT22;44860;53.020;6.738;2024-02-23T09:04:15;6.00;99.90
59075;DHT22;44860;53.020;6.738;2024-02-23T09:06:41;6.10;99.90
59075;DHT22;44860;53.020;6.738;2024-02-23T09:09:06;6.10;99.90
59075;DHT22;44860;53.020;6.738;2024-02-23T09:11:32;6.10;99.90
59075;DHT22;44860;53.020;6.738;2024-02-23T09:13:58;6.20;99.90
59075;DHT22;44860;53.020;6.738;2024-02-23T09:16:23;6.20;99.90
59075;DHT22;44860;53.020;6.738;2024-02-23T09:18:50;6.30;99.90
59075;DHT22;44860;53.020;6.738;2024-02-23T09:21:16;6.40;99.90
59075;DHT22;44860;53.020;6.738;2024-02-23T09:23:42;6.40;99.90
59075;DHT22;44860;53.020;6.738;2024-02-23T09:26:10;6.40;99.90
59075;DHT22;44860;53.020;6.738;2024-02-23T09:28:37;6.50;99.90
59075;DHT22;44860;53.020;6.738;2024-02-23T09:31:03;6.60;99.90
59075;DHT22;44860;53.020;6.738;2024-02-23T09:33:30;6.70;99.90
59075;DHT22;44860;53.020;6.738;2024-02-23T09:35:57;6.70;99.90
59075;DHT22;44860;53.020;6.738;2024-02-23T09:38:22;6.70;99.90
59075;DHT22;44860;53.020;6.738;2024-02-23T09:40:50;6.80;99.90
59075;DHT22;44860;53.020;6.738;2024-02-23T09:43:16;6.80;99.90
59075;DHT22;44860;53.020;6.738;2024-02-23T09:45:43;6.80;99.90
59075;DHT22;44860;53.020;6.738;2024-02-23T09:48:10;6.90;99.90
59075;DHT22;44860;53.020;6.738;2024-02-23T09:50:37;6.90;99.90
59075;DHT22;44860;53.020;6.738;2024-02-23T09:53:04;6.90;99.90
59075;DHT22;44860;53.020;6.738;2024-02-23T09:55:34;6.90;99.90
59075;DHT22;44860;53.020;6.738;2024-02-23T09:58:00;6.90;99.90
59075;DHT22;44860;53.020;6.738;2024-02-23T10:00:27;7.00;99.90
59075;DHT22;44860;53.020;6.738;2024-02-23T10:02:54;7.00;99.90
59075;DHT22;44860;53.020;6.738;2024-02-23T10:05:23;7.00;99.90
59075;DHT22;44860;53.020;6.738;2024-02-23T10:07:54;7.00;99.90
59075;DHT22;44860;53.020;6.738;2024-02-23T10:10:33;7.10;99.90
59075;DHT22;44860;53.020;6.738;2024-02-23T10:12:59;7.10;99.90
59075;DHT22;44860;53.020;6.738;2024-02-23T10:15:25;7.10;99.90
59075;DHT22;44860;53.020;6.738;2024-02-23T10:17:51;7.20;99.90
59075;DHT22;44860;53.020;6.738;2024-02-23T10:20:19;7.20;99.90
59075;DHT22;44860;53.020;6.738;2024-02-23T10:22:45;7.20;99.90
59075;DHT22;44860;53.020;6.738;2024-02-23T10:25:11;7.20;99.90
59075;DHT22;44860;53.020;6.738;2024-02-23T10:27:37;7.20;99.90
59075;DHT22;44860;53.020;6.738;2024-02-23T10:30:03;7.30;99.90
59075;DHT22;44860;53.020;6.738;2024-02-23T10:32:29;7.30;99.90
59075;DHT22;44860;53.020;6.738;2024-02-23T10:35:00;7.30;99.90
59075;DHT22;44860;53.020;6.738;2024-02-23T10:37:26;7.30;99.90
59075;DHT22;44860;53.020;6.738;2024-02-23T10:39:57;7.30;99.90
59075;DHT22;44860;53.020;6.738;2024-02-23T10:42:24;7.20;99.90
59075;DHT22;44860;53.020;6.738;2024-02-23T10:44:52;7.30;99.90
59075;DHT22;44860;53.020;6.738;2024-02-23T10:47:21;7.20;99.90
59075;DHT22;44860;53.020;6.738;2024-02-23T10:49:48;7.20;99.90
59075;DHT22;44860;53.020;6.738;2024-02-23T10:52:14;7.20;99.90
59075;DHT22;44860;53.020;6.738;2024-02-23T10:54:40;7.20;99.90
59075;DHT22;44860;53.020;6.738;2024-02-23T10:57:06;7.10;99.90
59075;DHT22;44860;53.020;6.738;2024-02-23T10:59:32;7.10;99.90
59075;DHT22;44860;53.020;6.738;2024-02-23T11:02:00;7.10;99.90
59075;DHT22;44860;53.020;6.738;2024-02-23T11:04:26;7.10;99.90
59075;DHT22;44860;53.020;6.738;2024-02-23T11:06:54;7.10;99.90
59075;DHT22;44860;53.020;6.738;2024-02-23T11:09:24;7.10;99.90
59075;DHT22;44860;53.020;6.738;2024-02-23T11:11:57;7.10;99.90
59075;DHT22;44860;53.020;6.738;2024-02-23T11:14:50;7.10;99.90
59075;DHT22;44860;53.020;6.738;2024-02-23T11:17:19;7.10;99.90
59075;DHT22;44860;53.020;6.738;2024-02-23T11:19:51;7.20;99.90
59075;DHT22;44860;53.020;6.738;2024-02-23T11:22:27;7.20;99.90
59075;DHT22;44860;53.020;6.738;2024-02-23T11:25:01;7.20;99.90
59075;DHT22;44860;53.020;6.738;2024-02-23T11:27:31;7.20;99.90
59075;DHT22;44860;53.020;6.738;2024-02-23T11:30:07;7.20;99.90
59075;DHT22;44860;53.020;6.738;2024-02-23T11:35:17;7.20;99.90
59075;DHT22;44860;53.020;6.738;2024-02-23T11:37:53;7.20;99.90
59075;DHT22;44860;53.020;6.738;2024-02-23T11:40:28;7.30;99.90
59075;DHT22;44860;53.020;6.738;2024-02-23T11:42:57;7.20;99.90
59075;DHT22;44860;53.020;6.738;2024-02-23T11:45:28;7.20;99.90
59075;DHT22;44860;53.020;6.738;2024-02-23T11:47:54;7.20;99.90
59075;DHT22;44860;53.020;6.738;2024-02-23T11:50:20;7.20;99.90
59075;DHT22;44860;53.020;6.738;2024-02-23T11:52:46;7.20;99.90
59075;DHT22;44860;53.020;6.738;2024-02-23T11:55:13;7.20;99.90
59075;DHT22;44860;53.020;6.738;2024-02-23T11:57:44;7.10;99.90
59075;DHT22;44860;53.020;6.738;2024-02-23T12:00:11;7.10;99.90
59075;DHT22;44860;53.020;6.738;2024-02-23T12:02:36;7.10;99.90
59075;DHT22;44860;53.020;6.738;2024-02-23T12:05:02;7.10;99.90
59075;DHT22;44860;53.020;6.738;2024-02-23T12:07:29;7.10;99.90
59075;DHT22;44860;53.020;6.738;2024-02-23T12:09:56;7.00;99.90
59075;DHT22;44860;53.020;6.738;2024-02-23T12:12:22;7.00;99.90
59075;DHT22;44860;53.020;6.738;2024-02-23T12:14:48;7.00;99.90
59075;DHT22;44860;53.020;6.738;2024-02-23T12:17:14;7.00;99.90
59075;DHT22;44860;53.020;6.738;2024-02-23T12:19:40;7.00;99.90
59075;DHT22;44860;53.020;6.738;2024-02-23T12:22:06;7.00;99.90
59075;DHT22;44860;53.020;6.738;2024-02-23T12:24:32;7.00;99.90
59075;DHT22;44860;53.020;6.738;2024-02-23T12:26:58;7.00;99.90
59075;DHT22;44860;53.020;6.738;2024-02-23T12:29:24;7.00;99.90
59075;DHT22;44860;53.020;6.738;2024-02-23T12:31:49;7.00;99.90
59075;DHT22;44860;53.020;6.738;2024-02-23T12:34:15;7.00;99.90
59075;DHT22;44860;53.020;6.738;2024-02-23T12:36:42;7.00;99.90
59075;DHT22;44860;53.020;6.738;2024-02-23T12:39:08;7.00;99.90
59075;DHT22;44860;53.020;6.738;2024-02-23T12:41:33;7.10;99.90
59075;DHT22;44860;53.020;6.738;2024-02-23T12:43:59;7.00;99.90
59075;DHT22;44860;53.020;6.738;2024-02-23T12:46:25;7.00;99.90
59075;DHT22;44860;53.020;6.738;2024-02-23T12:48:51;7.00;99.90
59075;DHT22;44860;53.020;6.738;2024-02-23T12:51:17;7.00;99.90
59075;DHT22;44860;53.020;6.738;2024-02-23T12:53:43;7.00;99.90
59075;DHT22;44860;53.020;6.738;2024-02-23T12:56:11;6.90;99.90
59075;DHT22;44860;53.020;6.738;2024-02-23T12:58:38;7.00;99.90
59075;DHT22;44860;53.020;6.738;2024-02-23T13:01:04;7.00;99.90
59075;DHT22;44860;53.020;6.738;2024-02-23T13:03:32;7.00;99.90
59075;DHT22;44860;53.020;6.738;2024-02-23T13:05:58;7.00;99.90
59075;DHT22;44860;53.020;6.738;2024-02-23T13:08:24;6.90;99.90
59075;DHT22;44860;53.020;6.738;2024-02-23T13:10:51;7.00;99.90
59075;DHT22;44860;53.020;6.738;2024-02-23T13:13:18;7.00;99.90
59075;DHT22;44860;53.020;6.738;2024-02-23T13:15:45;6.90;99.90
59075;DHT22;44860;53.020;6.738;2024-02-23T13:18:11;6.90;99.90
59075;DHT22;44860;53.020;6.738;2024-02-23T13:20:37;7.00;99.90
59075;DHT22;44860;53.020;6.738;2024-02-23T13:23:04;6.90;99.90
59075;DHT22;44860;53.020;6.738;2024-02-23T13:25:29;7.00;99.90
59075;DHT22;44860;53.020;6.738;2024-02-23T13:27:55;7.00;99.90
59075;DHT22;44860;53.020;6.738;2024-02-23T13:30:21;7.00;99.90
59075;DHT22;44860;53.020;6.738;2024-02-23T13:32:47;7.00;99.90
59075;DHT22;44860;53.020;6.738;2024-02-23T13:35:12;7.00;99.90
59075;DHT22;44860;53.020;6.738;2024-02-23T13:37:40;7.10;99.90
59075;DHT22;44860;53.020;6.738;2024-02-23T13:40:07;7.10;99.90
59075;DHT22;44860;53.020;6.738;2024-02-23T13:42:34;7.20;99.90
59075;DHT22;44860;53.020;6.738;2024-02-23T13:45:00;7.20;99.90
59075;DHT22;44860;53.020;6.738;2024-02-23T13:47:26;7.20;99.90
59075;DHT22;44860;53.020;6.738;2024-02-23T13:49:52;7.20;99.90
59075;DHT22;44860;53.020;6.738;2024-02-23T13:52:17;7.20;99.90
59075;DHT22;44860;53.020;6.738;2024-02-23T13:54:43;7.10;99.90
59075;DHT22;44860;53.020;6.738;2024-02-23T13:57:09;7.10;99.90
59075;DHT22;44860;53.020;6.738;2024-02-23T13:59:34;7.10;99.90
59075;DHT22;44860;53.020;6.738;2024-02-23T14:02:00;7.10;99.90
59075;DHT22;44860;53.020;6.738;2024-02-23T14:04:26;7.10;99.90
59075;DHT22;44860;53.020;6.738;2024-02-23T14:06:51;7.10;99.90
59075;DHT22;44860;53.020;6.738;2024-02-23T14:09:17;7.10;99.90
59075;DHT22;44860;53.020;6.738;2024-02-23T14:11:43;7.10;99.90
59075;DHT22;44860;53.020;6.738;2024-02-23T14:14:13;7.10;99.90
59075;DHT22;44860;53.020;6.738;2024-02-23T14:16:39;7.10;99.90
59075;DHT22;44860;53.020;6.738;2024-02-23T14:19:05;7.10;99.90
59075;DHT22;44860;53.020;6.738;2024-02-23T14:21:31;7.10;99.90
59075;DHT22;44860;53.020;6.738;2024-02-23T14:23:56;7.10;99.90
59075;DHT22;44860;53.020;6.738;2024-02-23T14:26:22;7.10;99.90
59075;DHT22;44860;53.020;6.738;2024-02-23T14:28:48;7.10;99.90
59075;DHT22;44860;53.020;6.738;2024-02-23T14:31:15;7.00;99.90
59075;DHT22;44860;53.020;6.738;2024-02-23T14:33:41;7.00;99.90
59075;DHT22;44860;53.020;6.738;2024-02-23T14:36:07;7.00;99.90
59075;DHT22;44860;53.020;6.738;2024-02-23T14:38:32;7.00;99.90
59075;DHT22;44860;53.020;6.738;2024-02-23T14:40:58;7.00;99.90
59075;DHT22;44860;53.020;6.738;2024-02-23T14:43:24;7.00;99.90
59075;DHT22;44860;53.020;6.738;2024-02-23T14:45:50;7.00;99.90
59075;DHT22;44860;53.020;6.738;2024-02-23T14:48:18;7.00;99.90
59075;DHT22;44860;53.020;6.738;2024-02-23T14:50:44;7.00;99.90
59075;DHT22;44860;53.020;6.738;2024-02-23T14:53:09;7.10;99.90
59075;DHT22;44860;53.020;6.738;2024-02-23T14:55:36;7.10;99.90
59075;DHT22;44860;53.020;6.738;2024-02-23T14:58:02;7.20;99.90
59075;DHT22;44860;53.020;6.738;2024-02-23T15:00:28;7.20;99.90
59075;DHT22;44860;53.020;6.738;2024-02-23T15:02:56;7.20;99.90
59075;DHT22;44860;53.020;6.738;2024-02-23T15:05:22;7.20;99.90
59075;DHT22;44860;53.020;6.738;2024-02-23T15:07:48;7.30;99.90
59075;DHT22;44860;53.020;6.738;2024-02-23T15:10:14;7.40;99.90
59075;DHT22;44860;53.020;6.738;2024-02-23T15:12:42;7.40;99.90
59075;DHT22;44860;53.020;6.738;2024-02-23T15:15:08;7.40;99.90
59075;DHT22;44860;53.020;6.738;2024-02-23T15:17:35;7.50;99.90
59075;DHT22;44860;53.020;6.738;2024-02-23T15:20:01;7.50;99.90
59075;DHT22;44860;53.020;6.738;2024-02-23T15:22:26;7.50;99.90
59075;DHT22;44860;53.020;6.738;2024-02-23T15:24:52;7.50;99.90
59075;DHT22;44860;53.020;6.738;2024-02-23T15:27:19;7.50;99.90
59075;DHT22;44860;53.020;6.738;2024-02-23T15:29:45;7.50;99.90
59075;DHT22;44860;53.020;6.738;2024-02-23T15:32:12;7.50;99.90
59075;DHT22;44860;53.020;6.738;2024-02-23T15:34:39;7.50;99.90
59075;DHT22;44860;53.020;6.738;2024-02-23T15:37:05;7.50;99.90
59075;DHT22;44860;53.020;6.738;2024-02-23T15:39:31;7.50;99.90
59075;DHT22;44860;53.020;6.738;2024-02-23T15:41:57;7.50;99.90